sensor_id;sensor_type;location;lat;lon;timestamp;pressure;altitude;pressure_sealevel;temperature;humidity
29909;BME280;36247;51.952;6.146;2023-04-09T00:01:03;102503.06;;;9.60;100.00
29909;BME280;36247;51.952;6.146;2023-04-09T00:03:35;102503.50;;;9.49;100.00
29909;BME280;36247;51.952;6.146;2023-04-09T00:06:02;102498.03;;;9.46;100.00
29909;BME280;36247;51.952;6.146;2023-04-09T00:08:28;102500.75;;;9.48;100.00
29909;BME280;36247;51.952;6.146;2023-04-09T00:10:56;102505.78;;;9.42;100.00
29909;BME280;36247;51.952;6.146;2023-04-09T00:13:23;102495.13;;;9.40;100.00
29909;BME280;36247;51.952;6.146;2023-04-09T00:15:48;102499.88;;;9.47;100.00
29909;BME280;36247;51.952;6.146;2023-04-09T00:18:15;102498.63;;;9.59;100.00
29909;BME280;36247;51.952;6.146;2023-04-09T00:20:42;102504.09;;;9.63;100.00
29909;BME280;36247;51.952;6.146;2023-04-09T00:23:09;102504.53;;;9.53;100.00
29909;BME280;36247;51.952;6.146;2023-04-09T00:25:35;102498.63;;;9.59;100.00
29909;BME280;36247;51.952;6.146;2023-04-09T00:28:01;102496.88;;;9.59;100.00
29909;BME280;36247;51.952;6.146;2023-04-09T00:30:30;102493.41;;;9.60;100.00
29909;BME280;36247;51.952;6.146;2023-04-09T00:32:56;102484.75;;;9.64;100.00
29909;BME280;36247;51.952;6.146;2023-04-09T00:35:22;102489.81;;;9.60;100.00
29909;BME280;36247;51.952;6.146;2023-04-09T00:37:48;102489.06;;;9.62;100.00
29909;BME280;36247;51.952;6.146;2023-04-09T00:40:15;102481.81;;;9.58;100.00
29909;BME280;36247;51.952;6.146;2023-04-09T00:42:41;102492.13;;;9.52;100.00
29909;BME280;36247;51.952;6.146;2023-04-09T00:45:07;102485.31;;;9.57;100.00
29909;BME280;36247;51.952;6.146;2023-04-09T00:47:34;102477.38;;;9.57;100.00
29909;BME280;36247;51.952;6.146;2023-04-09T00:50:01;102471.88;;;9.52;100.00
29909;BME280;36247;51.952;6.146;2023-04-09T00:52:28;102472.91;;;9.56;100.00
29909;BME280;36247;51.952;6.146;2023-04-09T00:54:57;102473.06;;;9.59;100.00
29909;BME280;36247;51.952;6.146;2023-04-09T00:57:23;102475.75;;;9.61;100.00
29909;BME280;36247;51.952;6.146;2023-04-09T00:59:49;102469.25;;;9.52;100.00
29909;BME280;36247;51.952;6.146;2023-04-09T01:02:16;102471.97;;;9.34;100.00
29909;BME280;36247;51.952;6.146;2023-04-09T01:04:42;102458.03;;;9.39;100.00
29909;BME280;36247;51.952;6.146;2023-04-09T01:07:22;102458.44;;;9.48;100.00
29909;BME280;36247;51.952;6.146;2023-04-09T01:13:11;102455.56;;;9.63;100.00
29909;BME280;36247;51.952;6.146;2023-04-09T01:15:52;102456.03;;;9.52;100.00
29909;BME280;36247;51.952;6.146;2023-04-09T01:18:38;102461.31;;;9.52;100.00
29909;BME280;36247;51.952;6.146;2023-04-09T01:21:19;102453.00;;;9.45;100.00
29909;BME280;36247;51.952;6.146;2023-04-09T01:29:14;102458.03;;;9.39;100.00
29909;BME280;36247;51.952;6.146;2023-04-09T01:31:45;102453.13;;;9.48;100.00
29909;BME280;36247;51.952;6.146;2023-04-09T01:34:14;102458.53;;;9.49;100.00
29909;BME280;36247;51.952;6.146;2023-04-09T01:36:47;102451.88;;;9.59;100.00
29909;BME280;36247;51.952;6.146;2023-04-09T01:39:15;102449.16;;;9.58;100.00
29909;BME280;36247;51.952;6.146;2023-04-09T01:41:41;102449.94;;;9.55;100.00
29909;BME280;36247;51.952;6.146;2023-04-09T01:44:09;102450.19;;;9.61;100.00
29909;BME280;36247;51.952;6.146;2023-04-09T01:46:38;102453.00;;;9.45;100.00
29909;BME280;36247;51.952;6.146;2023-04-09T01:49:05;102448.97;;;9.53;100.00
29909;BME280;36247;51.952;6.146;2023-04-09T01:51:32;102444.72;;;9.37;100.00
29909;BME280;36247;51.952;6.146;2023-04-09T01:53:59;102440.56;;;9.42;100.00
29909;BME280;36247;51.952;6.146;2023-04-09T01:56:25;102447.31;;;9.35;100.00
29909;BME280;36247;51.952;6.146;2023-04-09T01:58:52;102446.50;;;9.37;100.00
29909;BME280;36247;51.952;6.146;2023-04-09T02:01:38;102449.34;;;9.41;100.00
29909;BME280;36247;51.952;6.146;2023-04-09T02:04:15;102449.34;;;9.41;100.00
29909;BME280;36247;51.952;6.146;2023-04-09T02:07:03;102445.78;;;9.41;100.00
29909;BME280;36247;51.952;6.146;2023-04-09T02:09:36;102449.25;;;9.40;100.00
29909;BME280;36247;51.952;6.146;2023-04-09T02:12:05;102449.19;;;9.38;100.00
29909;BME280;36247;51.952;6.146;2023-04-09T02:14:34;102442.94;;;9.36;100.00
29909;BME280;36247;51.952;6.146;2023-04-09T02:17:03;102447.19;;;9.32;100.00
29909;BME280;36247;51.952;6.146;2023-04-09T02:19:41;102448.06;;;9.33;100.00
29909;BME280;36247;51.952;6.146;2023-04-09T02:22:11;102445.34;;;9.31;100.00
29909;BME280;36247;51.952;6.146;2023-04-09T02:24:38;102440.78;;;9.27;100.00
29909;BME280;36247;51.952;6.146;2023-04-09T02:27:05;102436.25;;;9.25;100.00
29909;BME280;36247;51.952;6.146;2023-04-09T02:29:31;102444.94;;;9.22;100.00
29909;BME280;36247;51.952;6.146;2023-04-09T02:31:57;102436.47;;;9.29;100.00
29909;BME280;36247;51.952;6.146;2023-04-09T02:34:23;102438.06;;;9.26;100.00
29909;BME280;36247;51.952;6.146;2023-04-09T02:36:50;102449.28;;;9.20;100.00
29909;BME280;36247;51.952;6.146;2023-04-09T02:39:15;102436.19;;;9.23;100.00
29909;BME280;36247;51.952;6.146;2023-04-09T02:41:46;102432.78;;;9.26;100.00
29909;BME280;36247;51.952;6.146;2023-04-09T02:44:12;102431.66;;;9.21;100.00
29909;BME280;36247;51.952;6.146;2023-04-09T02:46:41;102427.44;;;9.24;100.00
29909;BME280;36247;51.952;6.146;2023-04-09T02:49:13;102433.69;;;9.26;100.00
29909;BME280;36247;51.952;6.146;2023-04-09T02:51:38;102434.56;;;9.27;100.00
29909;BME280;36247;51.952;6.146;2023-04-09T02:54:11;102427.13;;;9.18;100.00
29909;BME280;36247;51.952;6.146;2023-04-09T02:56:36;102428.19;;;9.22;100.00
29909;BME280;36247;51.952;6.146;2023-04-09T02:59:03;102430.50;;;9.14;100.00
29909;BME280;36247;51.952;6.146;2023-04-09T03:01:32;102419.84;;;9.12;100.00
29909;BME280;36247;51.952;6.146;2023-04-09T03:03:59;102427.00;;;9.15;100.00
29909;BME280;36247;51.952;6.146;2023-04-09T03:06:26;102416.41;;;9.15;100.00
29909;BME280;36247;51.952;6.146;2023-04-09T03:08:52;102426.72;;;9.09;100.00
29909;BME280;36247;51.952;6.146;2023-04-09T03:11:17;102433.22;;;8.96;100.00
29909;BME280;36247;51.952;6.146;2023-04-09T03:13:43;102428.41;;;8.87;100.00
29909;BME280;36247;51.952;6.146;2023-04-09T03:16:10;102427.19;;;9.00;100.00
29909;BME280;36247;51.952;6.146;2023-04-09T03:18:36;102430.56;;;8.96;100.00
29909;BME280;36247;51.952;6.146;2023-04-09T03:21:08;102429.34;;;8.89;100.00
29909;BME280;36247;51.952;6.146;2023-04-09T03:23:37;102422.84;;;9.00;100.00
29909;BME280;36247;51.952;6.146;2023-04-09T03:26:05;102418.50;;;8.83;100.00
29909;BME280;36247;51.952;6.146;2023-04-09T03:28:38;102420.31;;;8.84;100.00
29909;BME280;36247;51.952;6.146;2023-04-09T03:31:05;102417.28;;;8.94;100.00
29909;BME280;36247;51.952;6.146;2023-04-09T03:33:43;102411.84;;;8.91;100.00
29909;BME280;36247;51.952;6.146;2023-04-09T03:36:13;102413.56;;;8.91;100.00
29909;BME280;36247;51.952;6.146;2023-04-09T03:38:55;102410.09;;;8.92;100.00
29909;BME280;36247;51.952;6.146;2023-04-09T03:41:26;102403.47;;;8.82;100.00
29909;BME280;36247;51.952;6.146;2023-04-09T03:43:54;102410.84;;;8.89;100.00
29909;BME280;36247;51.952;6.146;2023-04-09T03:46:24;102405.56;;;8.89;100.00
29909;BME280;36247;51.952;6.146;2023-04-09T03:48:50;102405.91;;;8.77;100.00
29909;BME280;36247;51.952;6.146;2023-04-09T03:51:19;102402.59;;;8.81;100.00
29909;BME280;36247;51.952;6.146;2023-04-09T03:53:51;102404.66;;;8.69;100.00
29909;BME280;36247;51.952;6.146;2023-04-09T03:56:17;102412.81;;;8.74;100.00
29909;BME280;36247;51.952;6.146;2023-04-09T03:58:44;102398.19;;;8.62;100.00
29909;BME280;36247;51.952;6.146;2023-04-09T04:01:13;102408.44;;;8.56;100.00
29909;BME280;36247;51.952;6.146;2023-04-09T04:03:49;102403.78;;;8.33;100.00
29909;BME280;36247;51.952;6.146;2023-04-09T04:06:22;102401.44;;;8.21;100.00
29909;BME280;36247;51.952;6.146;2023-04-09T04:09:03;102399.66;;;8.02;100.00
29909;BME280;36247;51.952;6.146;2023-04-09T04:11:39;102405.75;;;8.01;100.00
29909;BME280;36247;51.952;6.146;2023-04-09T04:14:05;102410.44;;;7.88;100.00
29909;BME280;36247;51.952;6.146;2023-04-09T04:16:32;102414.94;;;7.91;100.00
29909;BME280;36247;51.952;6.146;2023-04-09T04:19:00;102411.22;;;7.69;100.00
29909;BME280;36247;51.952;6.146;2023-04-09T04:21:28;102415.06;;;7.76;100.00
29909;BME280;36247;51.952;6.146;2023-04-09T04:23:58;102406.75;;;7.50;100.00
29909;BME280;36247;51.952;6.146;2023-04-09T04:26:27;102411.53;;;7.41;100.00
29909;BME280;36247;51.952;6.146;2023-04-09T04:28:53;102408.09;;;7.42;100.00
29909;BME280;36247;51.952;6.146;2023-04-09T04:31:31;102408.09;;;7.42;100.00
29909;BME280;36247;51.952;6.146;2023-04-09T04:33:59;102414.09;;;7.39;100.00
29909;BME280;36247;51.952;6.146;2023-04-09T04:36:25;102417.97;;;7.30;100.00
29909;BME280;36247;51.952;6.146;2023-04-09T04:38:54;102420.06;;;7.19;100.00
29909;BME280;36247;51.952;6.146;2023-04-09T04:41:31;102419.25;;;7.03;100.00
29909;BME280;36247;51.952;6.146;2023-04-09T04:44:20;102424.19;;;6.97;100.00
29909;BME280;36247;51.952;6.146;2023-04-09T04:46:49;102421.63;;;6.99;100.00
29909;BME280;36247;51.952;6.146;2023-04-09T04:49:18;102424.91;;;7.11;100.00
29909;BME280;36247;51.952;6.146;2023-04-09T04:51:46;102430.13;;;6.93;100.00
29909;BME280;36247;51.952;6.146;2023-04-09T04:54:14;102432.25;;;6.84;100.00
29909;BME280;36247;51.952;6.146;2023-04-09T04:56:52;102428.91;;;6.55;100.00
29909;BME280;36247;51.952;6.146;2023-04-09T04:59:39;102432.97;;;6.65;100.00
29909;BME280;36247;51.952;6.146;2023-04-09T05:02:12;102435.25;;;6.59;100.00
29909;BME280;36247;51.952;6.146;2023-04-09T05:04:59;102437.47;;;6.51;100.00
29909;BME280;36247;51.952;6.146;2023-04-09T05:07:33;102430.16;;;6.62;100.00
29909;BME280;36247;51.952;6.146;2023-04-09T05:10:00;102427.22;;;6.72;100.00
29909;BME280;36247;51.952;6.146;2023-04-09T05:13:01;102429.81;;;6.56;100.00
29909;BME280;36247;51.952;6.146;2023-04-09T05:15:40;102429.75;;;6.54;100.00
29909;BME280;36247;51.952;6.146;2023-04-09T05:18:08;102432.66;;;6.44;100.00
29909;BME280;36247;51.952;6.146;2023-04-09T05:20:35;102432.28;;;6.52;100.00
29909;BME280;36247;51.952;6.146;2023-04-09T05:23:08;102422.25;;;6.62;100.00
29909;BME280;36247;51.952;6.146;2023-04-09T05:25:40;102419.22;;;6.54;100.00
29909;BME280;36247;51.952;6.146;2023-04-09T05:28:12;102425.53;;;6.58;100.00
29909;BME280;36247;51.952;6.146;2023-04-09T05:30:39;102427.78;;;6.66;100.00
29909;BME280;36247;51.952;6.146;2023-04-09T05:33:06;102425.69;;;6.61;100.00
29909;BME280;36247;51.952;6.146;2023-04-09T05:35:39;102417.72;;;6.59;100.00
29909;BME280;36247;51.952;6.146;2023-04-09T05:38:05;102419.16;;;6.69;100.00
29909;BME280;36247;51.952;6.146;2023-04-09T05:40:31;102428.34;;;6.61;100.00
29909;BME280;36247;51.952;6.146;2023-04-09T05:42:57;102420.34;;;6.59;100.00
29909;BME280;36247;51.952;6.146;2023-04-09T05:45:39;102428.66;;;6.67;100.00
29909;BME280;36247;51.952;6.146;2023-04-09T05:48:06;102425.97;;;6.65;100.00
29909;BME280;36247;51.952;6.146;2023-04-09T05:50:33;102420.53;;;6.79;100.00
29909;BME280;36247;51.952;6.146;2023-04-09T05:53:00;102426.81;;;6.81;100.00
29909;BME280;36247;51.952;6.146;2023-04-09T05:55:35;102425.16;;;6.83;100.00
29909;BME280;36247;51.952;6.146;2023-04-09T05:58:01;102422.94;;;6.91;100.00
29909;BME280;36247;51.952;6.146;2023-04-09T06:00:27;102420.63;;;6.80;100.00
29909;BME280;36247;51.952;6.146;2023-04-09T06:02:53;102426.06;;;6.83;100.00
29909;BME280;36247;51.952;6.146;2023-04-09T06:05:19;102421.97;;;6.88;100.00
29909;BME280;36247;51.952;6.146;2023-04-09T06:07:47;102433.31;;;6.87;100.00
29909;BME280;36247;51.952;6.146;2023-04-09T06:10:13;102417.09;;;6.96;100.00
29909;BME280;36247;51.952;6.146;2023-04-09T06:12:38;102422.69;;;7.02;100.00
29909;BME280;36247;51.952;6.146;2023-04-09T06:15:10;102423.84;;;7.07;100.00
29909;BME280;36247;51.952;6.146;2023-04-09T06:17:36;102427.41;;;7.08;100.00
29909;BME280;36247;51.952;6.146;2023-04-09T06:20:03;102422.13;;;7.08;100.00
29909;BME280;36247;51.952;6.146;2023-04-09T06:22:29;102419.50;;;7.08;100.00
29909;BME280;36247;51.952;6.146;2023-04-09T06:24:54;102418.31;;;7.19;100.00
29909;BME280;36247;51.952;6.146;2023-04-09T06:27:21;102419.97;;;7.17;100.00
29909;BME280;36247;51.952;6.146;2023-04-09T06:29:47;102423.94;;;7.26;100.00
29909;BME280;36247;51.952;6.146;2023-04-09T06:32:13;102424.34;;;7.33;100.00
29909;BME280;36247;51.952;6.146;2023-04-09T06:34:42;102429.53;;;7.32;100.00
29909;BME280;36247;51.952;6.146;2023-04-09T06:37:10;102424.91;;;7.28;100.00
29909;BME280;36247;51.952;6.146;2023-04-09T06:39:45;102417.63;;;7.40;100.00
29909;BME280;36247;51.952;6.146;2023-04-09T06:42:14;102423.22;;;7.46;100.00
29909;BME280;36247;51.952;6.146;2023-04-09T06:44:50;102422.81;;;7.55;100.00
29909;BME280;36247;51.952;6.146;2023-04-09T06:47:19;102433.75;;;7.63;100.00
29909;BME280;36247;51.952;6.146;2023-04-09T06:49:45;102430.44;;;7.67;100.00
29909;BME280;36247;51.952;6.146;2023-04-09T06:52:14;102435.38;;;7.77;100.00
29909;BME280;36247;51.952;6.146;2023-04-09T06:54:40;102427.75;;;7.83;100.00
29909;BME280;36247;51.952;6.146;2023-04-09T06:57:07;102427.16;;;7.89;100.00
29909;BME280;36247;51.952;6.146;2023-04-09T06:59:36;102427.31;;;7.92;100.00
29909;BME280;36247;51.952;6.146;2023-04-09T07:02:30;102432.31;;;8.04;100.00
29909;BME280;36247;51.952;6.146;2023-04-09T07:04:57;102437.44;;;8.19;100.00
29909;BME280;36247;51.952;6.146;2023-04-09T07:07:32;102425.69;;;8.48;100.00
29909;BME280;36247;51.952;6.146;2023-04-09T07:09:58;102440.16;;;8.38;100.00
29909;BME280;36247;51.952;6.146;2023-04-09T07:12:27;102437.66;;;8.41;100.00
29909;BME280;36247;51.952;6.146;2023-04-09T07:14:57;102435.00;;;8.59;100.00
29909;BME280;36247;51.952;6.146;2023-04-09T07:17:24;102441.50;;;8.66;100.00
29909;BME280;36247;51.952;6.146;2023-04-09T07:19:49;102424.59;;;8.62;100.00
29909;BME280;36247;51.952;6.146;2023-04-09T07:22:17;102428.44;;;8.69;100.00
29909;BME280;36247;51.952;6.146;2023-04-09T07:24:48;102425.91;;;8.90;100.00
29909;BME280;36247;51.952;6.146;2023-04-09T07:27:26;102430.91;;;9.04;100.00
29909;BME280;36247;51.952;6.146;2023-04-09T07:29:54;102426.38;;;9.21;100.00
29909;BME280;36247;51.952;6.146;2023-04-09T07:32:21;102419.97;;;9.35;100.00
29909;BME280;36247;51.952;6.146;2023-04-09T07:34:47;102431.19;;;9.10;100.00
29909;BME280;36247;51.952;6.146;2023-04-09T07:37:18;102426.25;;;9.17;100.00
29909;BME280;36247;51.952;6.146;2023-04-09T07:39:47;102422.25;;;9.47;100.00
29909;BME280;36247;51.952;6.146;2023-04-09T07:42:12;102427.81;;;9.53;100.00
29909;BME280;36247;51.952;6.146;2023-04-09T07:44:39;102424.22;;;9.72;100.00
29909;BME280;36247;51.952;6.146;2023-04-09T07:47:06;102422.53;;;9.95;100.00
29909;BME280;36247;51.952;6.146;2023-04-09T07:49:32;102424.91;;;10.10;100.00
29909;BME280;36247;51.952;6.146;2023-04-09T07:52:04;102421.25;;;10.06;100.00
29909;BME280;36247;51.952;6.146;2023-04-09T07:54:31;102430.44;;;10.16;100.00
29909;BME280;36247;51.952;6.146;2023-04-09T07:56:58;102427.88;;;10.18;100.00
29909;BME280;36247;51.952;6.146;2023-04-09T08:40:40;102420.38;;;12.80;100.00
29909;BME280;36247;51.952;6.146;2023-04-09T08:43:08;102426.22;;;12.68;100.00
29909;BME280;36247;51.952;6.146;2023-04-09T08:45:35;102426.13;;;12.65;100.00
29909;BME280;36247;51.952;6.146;2023-04-09T08:48:16;102427.75;;;12.90;100.00
29909;BME280;36247;51.952;6.146;2023-04-09T08:50:55;102423.06;;;12.81;100.00
29909;BME280;36247;51.952;6.146;2023-04-09T08:53:20;102424.50;;;12.70;100.00
29909;BME280;36247;51.952;6.146;2023-04-09T08:55:47;102417.81;;;13.15;100.00
29909;BME280;36247;51.952;6.146;2023-04-09T08:58:17;102417.88;;;12.86;100.00
29909;BME280;36247;51.952;6.146;2023-04-09T09:00:44;102418.38;;;13.67;100.00
29909;BME280;36247;51.952;6.146;2023-04-09T09:03:10;102409.06;;;13.84;100.00
29909;BME280;36247;51.952;6.146;2023-04-09T09:05:55;102419.03;;;13.91;100.00
29909;BME280;36247;51.952;6.146;2023-04-09T09:08:25;102412.19;;;14.03;100.00
29909;BME280;36247;51.952;6.146;2023-04-09T09:10:51;102402.44;;;14.41;100.00
29909;BME280;36247;51.952;6.146;2023-04-09T09:13:22;102396.25;;;14.82;100.00
29909;BME280;36247;51.952;6.146;2023-04-09T09:15:50;102401.56;;;14.80;100.00
29909;BME280;36247;51.952;6.146;2023-04-09T09:18:36;102391.31;;;15.01;100.00
29909;BME280;36247;51.952;6.146;2023-04-09T09:21:20;102387.03;;;15.10;100.00
29909;BME280;36247;51.952;6.146;2023-04-09T09:23:46;102390.94;;;14.84;100.00
29909;BME280;36247;51.952;6.146;2023-04-09T09:26:19;102383.06;;;15.34;100.00
29909;BME280;36247;51.952;6.146;2023-04-09T09:28:46;102381.88;;;15.68;100.00
29909;BME280;36247;51.952;6.146;2023-04-09T09:31:15;102375.47;;;16.11;100.00
29909;BME280;36247;51.952;6.146;2023-04-09T09:33:49;102376.03;;;15.90;100.00
29909;BME280;36247;51.952;6.146;2023-04-09T09:36:36;102372.97;;;15.68;100.00
29909;BME280;36247;51.952;6.146;2023-04-09T09:39:02;102372.69;;;15.51;100.00
29909;BME280;36247;51.952;6.146;2023-04-09T09:41:31;102380.72;;;16.03;93.23
29909;BME280;36247;51.952;6.146;2023-04-09T09:43:57;102370.91;;;16.63;96.34
29909;BME280;36247;51.952;6.146;2023-04-09T09:46:26;102372.34;;;17.05;86.09
29909;BME280;36247;51.952;6.146;2023-04-09T09:48:57;102376.72;;;17.00;94.21
29909;BME280;36247;51.952;6.146;2023-04-09T09:51:25;102380.06;;;16.19;95.56
29909;BME280;36247;51.952;6.146;2023-04-09T09:53:55;102375.97;;;16.43;93.34
29909;BME280;36247;51.952;6.146;2023-04-09T09:56:46;102376.63;;;16.92;90.29
29909;BME280;36247;51.952;6.146;2023-04-09T09:59:20;102377.34;;;16.81;91.95
29909;BME280;36247;51.952;6.146;2023-04-09T10:01:47;102380.34;;;16.38;82.59
29909;BME280;36247;51.952;6.146;2023-04-09T10:04:18;102375.25;;;17.28;81.59
29909;BME280;36247;51.952;6.146;2023-04-09T10:06:50;102370.13;;;17.52;82.01
29909;BME280;36247;51.952;6.146;2023-04-09T10:13:32;102372.91;;;17.64;60.64
29909;BME280;36247;51.952;6.146;2023-04-09T10:15:59;102383.72;;;17.75;61.42
29909;BME280;36247;51.952;6.146;2023-04-09T10:18:25;102384.88;;;18.03;58.21
29909;BME280;36247;51.952;6.146;2023-04-09T10:20:58;102367.69;;;17.78;66.29
29909;BME280;36247;51.952;6.146;2023-04-09T10:23:32;102353.09;;;18.74;59.62
29909;BME280;36247;51.952;6.146;2023-04-09T10:26:01;102352.97;;;18.49;64.53
29909;BME280;36247;51.952;6.146;2023-04-09T10:28:28;102351.84;;;18.07;53.53
29909;BME280;36247;51.952;6.146;2023-04-09T10:30:54;102353.66;;;18.11;53.18
29909;BME280;36247;51.952;6.146;2023-04-09T10:33:25;102345.00;;;18.59;53.33
29909;BME280;36247;51.952;6.146;2023-04-09T10:35:53;102356.28;;;18.01;53.65
29909;BME280;36247;51.952;6.146;2023-04-09T10:38:45;102348.47;;;18.39;57.10
29909;BME280;36247;51.952;6.146;2023-04-09T10:41:21;102341.66;;;19.48;55.89
29909;BME280;36247;51.952;6.146;2023-04-09T10:43:50;102337.97;;;18.87;55.93
29909;BME280;36247;51.952;6.146;2023-04-09T10:46:27;102336.25;;;19.14;51.74
29909;BME280;36247;51.952;6.146;2023-04-09T10:49:18;102343.41;;;19.12;53.50
29909;BME280;36247;51.952;6.146;2023-04-09T10:52:01;102330.94;;;19.82;47.93
29909;BME280;36247;51.952;6.146;2023-04-09T10:57:24;102328.09;;;20.53;53.67
29909;BME280;36247;51.952;6.146;2023-04-09T11:00:14;102327.19;;;18.82;49.53
29909;BME280;36247;51.952;6.146;2023-04-09T11:05:33;102328.94;;;18.79;51.17
29909;BME280;36247;51.952;6.146;2023-04-09T11:08:12;102325.38;;;18.75;49.59
29909;BME280;36247;51.952;6.146;2023-04-09T11:10:43;102326.22;;;18.59;52.97
29909;BME280;36247;51.952;6.146;2023-04-09T11:13:10;102320.00;;;18.74;51.58
29909;BME280;36247;51.952;6.146;2023-04-09T11:15:44;102329.09;;;19.30;50.74
29909;BME280;36247;51.952;6.146;2023-04-09T11:18:24;102316.63;;;19.80;55.59
29909;BME280;36247;51.952;6.146;2023-04-09T11:20:56;102313.91;;;19.46;53.72
29909;BME280;36247;51.952;6.146;2023-04-09T11:23:24;102312.09;;;19.35;49.56
29909;BME280;36247;51.952;6.146;2023-04-09T11:25:51;102312.97;;;19.31;48.29
29909;BME280;36247;51.952;6.146;2023-04-09T11:28:19;102313.84;;;19.13;49.84
29909;BME280;36247;51.952;6.146;2023-04-09T11:30:46;102301.34;;;19.45;51.97
29909;BME280;36247;51.952;6.146;2023-04-09T11:33:14;102310.28;;;19.14;49.07
29909;BME280;36247;51.952;6.146;2023-04-09T11:35:41;102307.34;;;18.45;48.46
29909;BME280;36247;51.952;6.146;2023-04-09T11:38:11;102304.03;;;19.23;48.29
29909;BME280;36247;51.952;6.146;2023-04-09T11:40:42;102299.34;;;20.66;49.39
29909;BME280;36247;51.952;6.146;2023-04-09T11:43:18;102308.47;;;18.98;49.57
29909;BME280;36247;51.952;6.146;2023-04-09T11:45:45;102306.72;;;19.40;50.25
29909;BME280;36247;51.952;6.146;2023-04-09T11:48:13;102298.66;;;19.66;47.89
29909;BME280;36247;51.952;6.146;2023-04-09T11:50:43;102300.41;;;20.06;50.68
29909;BME280;36247;51.952;6.146;2023-04-09T11:56:07;102290.34;;;20.70;49.58
29909;BME280;36247;51.952;6.146;2023-04-09T11:58:44;102296.22;;;21.34;49.67
29909;BME280;36247;51.952;6.146;2023-04-09T12:01:11;102305.63;;;18.56;51.09
29909;BME280;36247;51.952;6.146;2023-04-09T12:03:38;102303.75;;;18.37;56.21
29909;BME280;36247;51.952;6.146;2023-04-09T12:06:07;102306.66;;;20.22;51.73
29909;BME280;36247;51.952;6.146;2023-04-09T12:08:40;102309.41;;;19.77;47.57
29909;BME280;36247;51.952;6.146;2023-04-09T12:11:14;102310.31;;;20.02;48.48
29909;BME280;36247;51.952;6.146;2023-04-09T12:13:40;102306.50;;;20.64;49.87
29909;BME280;36247;51.952;6.146;2023-04-09T12:16:10;102302.94;;;18.64;57.88
29909;BME280;36247;51.952;6.146;2023-04-09T12:18:36;102311.63;;;18.07;56.24
29909;BME280;36247;51.952;6.146;2023-04-09T12:30:41;102291.25;;;18.48;60.04
29909;BME280;36247;51.952;6.146;2023-04-09T12:35:51;102290.31;;;18.33;57.95
29909;BME280;36247;51.952;6.146;2023-04-09T12:38:18;102290.28;;;18.23;54.62
29909;BME280;36247;51.952;6.146;2023-04-09T12:40:44;102301.97;;;17.19;60.69
29909;BME280;36247;51.952;6.146;2023-04-09T12:43:12;102292.81;;;16.98;63.13
29909;BME280;36247;51.952;6.146;2023-04-09T12:45:42;102289.22;;;16.24;63.11
29909;BME280;36247;51.952;6.146;2023-04-09T12:48:08;102285.63;;;16.92;63.16
29909;BME280;36247;51.952;6.146;2023-04-09T12:50:36;102283.97;;;17.05;59.97
29909;BME280;36247;51.952;6.146;2023-04-09T12:53:03;102275.97;;;17.08;65.14
29909;BME280;36247;51.952;6.146;2023-04-09T12:55:39;102277.19;;;16.59;64.67
29909;BME280;36247;51.952;6.146;2023-04-09T13:00:55;102265.38;;;18.67;53.96
29909;BME280;36247;51.952;6.146;2023-04-09T13:03:23;102263.63;;;18.72;52.25
29909;BME280;36247;51.952;6.146;2023-04-09T13:05:51;102264.19;;;17.97;52.97
29909;BME280;36247;51.952;6.146;2023-04-09T13:08:17;102262.81;;;19.55;52.69
29909;BME280;36247;51.952;6.146;2023-04-09T13:10:45;102256.44;;;18.63;61.72
29909;BME280;36247;51.952;6.146;2023-04-09T13:13:11;102260.13;;;19.19;55.79
29909;BME280;36247;51.952;6.146;2023-04-09T13:15:41;102259.78;;;20.80;47.59
29909;BME280;36247;51.952;6.146;2023-04-09T13:18:14;102265.97;;;20.94;47.77
29909;BME280;36247;51.952;6.146;2023-04-09T13:20:45;102256.53;;;19.82;47.95
29909;BME280;36247;51.952;6.146;2023-04-09T13:23:11;102259.25;;;19.61;45.72
29909;BME280;36247;51.952;6.146;2023-04-09T13:25:39;102258.09;;;20.53;46.07
29909;BME280;36247;51.952;6.146;2023-04-09T13:28:07;102273.47;;;17.28;51.88
29909;BME280;36247;51.952;6.146;2023-04-09T13:30:36;102260.41;;;21.16;44.60
29909;BME280;36247;51.952;6.146;2023-04-09T13:33:06;102263.72;;;19.29;45.46
29909;BME280;36247;51.952;6.146;2023-04-09T13:35:35;102256.56;;;19.14;45.63
29909;BME280;36247;51.952;6.146;2023-04-09T13:38:06;102261.63;;;18.19;48.13
29909;BME280;36247;51.952;6.146;2023-04-09T13:44:25;102248.06;;;20.86;45.37
29909;BME280;36247;51.952;6.146;2023-04-09T13:46:55;102233.50;;;22.05;45.49
29909;BME280;36247;51.952;6.146;2023-04-09T13:49:32;102223.59;;;22.08;40.02
29909;BME280;36247;51.952;6.146;2023-04-09T13:51:58;102232.63;;;22.74;42.12
29909;BME280;36247;51.952;6.146;2023-04-09T13:54:24;102236.75;;;22.36;40.47
29909;BME280;36247;51.952;6.146;2023-04-09T13:56:51;102230.94;;;22.67;41.48
29909;BME280;36247;51.952;6.146;2023-04-09T13:59:18;102231.19;;;23.09;39.65
29909;BME280;36247;51.952;6.146;2023-04-09T14:01:47;102221.69;;;22.82;40.58
29909;BME280;36247;51.952;6.146;2023-04-09T14:04:13;102216.06;;;23.52;36.82
29909;BME280;36247;51.952;6.146;2023-04-09T14:06:39;102222.47;;;23.46;37.48
29909;BME280;36247;51.952;6.146;2023-04-09T14:09:07;102221.63;;;22.21;38.67
29909;BME280;36247;51.952;6.146;2023-04-09T14:11:33;102222.59;;;22.82;37.34
29909;BME280;36247;51.952;6.146;2023-04-09T14:14:00;102219.31;;;22.62;37.49
29909;BME280;36247;51.952;6.146;2023-04-09T14:16:26;102212.69;;;23.89;37.35
29909;BME280;36247;51.952;6.146;2023-04-09T14:18:58;102229.88;;;21.19;38.63
29909;BME280;36247;51.952;6.146;2023-04-09T14:21:27;102212.50;;;23.50;38.29
29909;BME280;36247;51.952;6.146;2023-04-09T14:23:53;102212.28;;;23.61;35.81
29909;BME280;36247;51.952;6.146;2023-04-09T14:26:19;102215.69;;;23.22;36.39